createdAt,value
2018-01-27T00:00:14.493Z,55.40
2018-01-27T00:02:42.745Z,55.60
2018-01-27T00:05:11.033Z,55.80
2018-01-27T00:07:39.273Z,55.70
2018-01-27T00:10:07.551Z,55.40
2018-01-27T00:12:35.805Z,55.50
2018-01-27T00:15:04.068Z,55.60
2018-01-27T00:17:32.324Z,55.60
2018-01-27T00:20:01.342Z,56.70
2018-01-27T00:22:29.560Z,55.90
2018-01-27T00:24:57.857Z,55.70
2018-01-27T00:27:26.166Z,56.00
2018-01-27T00:29:54.420Z,55.90
2018-01-27T00:32:22.666Z,56.20
2018-01-27T00:34:51.828Z,56.40
2018-01-27T00:37:20.139Z,56.00
2018-01-27T00:39:48.368Z,56.20
2018-01-27T00:42:16.642Z,56.00
2018-01-27T00:44:44.907Z,56.10
2018-01-27T00:47:13.141Z,56.10
2018-01-27T00:49:41.403Z,56.10
2018-01-27T00:52:09.673Z,56.10
2018-01-27T00:54:37.964Z,56.20
2018-01-27T00:57:06.269Z,56.20
2018-01-27T00:59:34.500Z,56.30
2018-01-27T01:02:02.856Z,56.00
2018-01-27T01:04:31.168Z,56.30
2018-01-27T01:06:59.424Z,56.00
2018-01-27T01:09:27.897Z,56.30
2018-01-27T01:11:56.708Z,56.40
2018-01-27T01:14:24.959Z,56.20
2018-01-27T01:16:53.507Z,56.30
2018-01-27T01:19:21.882Z,56.30
2018-01-27T01:21:50.280Z,56.30
2018-01-27T01:24:19.297Z,56.50
2018-01-27T01:26:47.545Z,56.50
2018-01-27T01:29:15.832Z,56.50
2018-01-27T01:31:44.289Z,56.60
2018-01-27T01:34:12.499Z,56.60
2018-01-27T01:36:40.749Z,56.60
2018-01-27T01:39:09.044Z,56.70
2018-01-27T01:41:37.299Z,56.50
2018-01-27T01:44:11.886Z,56.50
2018-01-27T01:46:40.241Z,57.20
2018-01-27T01:49:20.300Z,56.60
2018-01-27T01:51:48.640Z,56.70
2018-01-27T01:54:17.828Z,56.60
2018-01-27T01:56:46.033Z,56.50
2018-01-27T01:59:14.289Z,56.70
2018-01-27T02:01:43.322Z,56.60
2018-01-27T02:04:11.569Z,56.50
2018-01-27T02:06:40.261Z,56.40
2018-01-27T02:09:08.486Z,56.40
2018-01-27T02:11:36.749Z,56.60
2018-01-27T02:14:05.003Z,56.70
2018-01-27T02:16:33.267Z,57.40
2018-01-27T02:19:01.550Z,56.80
2018-01-27T02:21:29.805Z,56.90
2018-01-27T02:23:58.817Z,57.00
2018-01-27T02:26:27.073Z,57.00
2018-01-27T02:28:55.316Z,56.90
2018-01-27T02:31:23.611Z,56.80
2018-01-27T02:33:51.912Z,57.00
2018-01-27T02:36:20.577Z,57.50
2018-01-27T02:38:48.798Z,56.60
2018-01-27T02:41:17.121Z,56.80
2018-01-27T02:43:45.603Z,56.70
2018-01-27T02:46:13.873Z,56.70
2018-01-27T02:48:42.109Z,57.00
2018-01-27T02:51:10.370Z,56.70
2018-01-27T02:53:38.617Z,56.90
2018-01-27T02:56:08.213Z,56.90
2018-01-27T02:58:36.729Z,57.00
2018-01-27T03:01:05.176Z,57.00
2018-01-27T03:03:33.406Z,57.10
2018-01-27T03:06:01.652Z,57.30
2018-01-27T03:08:29.933Z,57.50
2018-01-27T03:10:58.978Z,57.20
2018-01-27T03:13:27.212Z,57.20
2018-01-27T03:15:55.534Z,57.30
2018-01-27T03:18:23.968Z,57.30
2018-01-27T03:20:52.411Z,57.50
2018-01-27T03:23:20.744Z,57.50
2018-01-27T03:25:48.944Z,57.50
2018-01-27T03:28:17.253Z,57.50
2018-01-27T03:30:46.243Z,57.20
2018-01-27T03:33:14.496Z,57.40
2018-01-27T03:38:03.586Z,57.20
2018-01-27T03:40:31.873Z,57.40
2018-01-27T03:43:00.117Z,57.50
2018-01-27T03:45:28.380Z,57.60
2018-01-27T03:47:56.679Z,57.70
2018-01-27T03:50:24.876Z,57.50
2018-01-27T03:52:53.945Z,57.50
2018-01-27T03:55:22.353Z,57.50
2018-01-27T03:57:50.616Z,57.50
2018-01-27T04:00:18.870Z,57.50
2018-01-27T04:02:47.106Z,57.40
2018-01-27T04:05:15.353Z,57.50
2018-01-27T04:07:44.380Z,57.20
2018-01-27T04:10:12.644Z,57.30
2018-01-27T04:12:40.941Z,57.20
2018-01-27T04:15:09.370Z,57.20
2018-01-27T04:17:37.568Z,57.00
2018-01-27T04:20:06.602Z,57.10
2018-01-27T04:22:34.899Z,57.20
2018-01-27T04:25:03.170Z,57.40
2018-01-27T04:27:31.409Z,57.40
2018-01-27T04:29:59.660Z,57.50
2018-01-27T04:32:28.842Z,57.40
2018-01-27T04:34:57.731Z,58.10
2018-01-27T04:37:26.045Z,57.50
2018-01-27T04:39:54.301Z,57.60
2018-01-27T04:42:22.589Z,57.50
2018-01-27T04:44:50.828Z,57.70
2018-01-27T04:47:19.078Z,57.50
2018-01-27T04:49:47.328Z,57.70
2018-01-27T04:52:15.606Z,56.90
2018-01-27T04:54:43.852Z,57.50
2018-01-27T04:57:13.038Z,57.20
2018-01-27T04:59:41.262Z,57.20
2018-01-27T05:02:09.505Z,57.20
2018-01-27T05:04:42.662Z,57.40
2018-01-27T05:07:10.942Z,58.00
2018-01-27T05:09:39.180Z,56.40
2018-01-27T05:12:07.478Z,56.40
2018-01-27T05:14:35.921Z,57.20
2018-01-27T05:17:04.149Z,57.40
2018-01-27T05:19:32.549Z,57.40
2018-01-27T05:22:00.976Z,57.50
2018-01-27T05:24:29.401Z,57.20
2018-01-27T05:26:57.629Z,57.40
2018-01-27T05:29:25.860Z,57.80
2018-01-27T05:31:54.153Z,57.10
2018-01-27T05:34:22.368Z,57.10
2018-01-27T05:36:50.684Z,57.10
2018-01-27T05:39:18.916Z,57.30
2018-01-27T05:41:47.153Z,57.30
2018-01-27T05:44:15.418Z,57.10
2018-01-27T05:46:43.662Z,57.00
2018-01-27T05:49:11.973Z,56.00
2018-01-27T05:51:40.213Z,55.80
2018-01-27T05:54:08.492Z,55.90
2018-01-27T05:56:36.763Z,56.30
2018-01-27T05:59:05.274Z,55.70
2018-01-27T06:01:33.532Z,56.50
2018-01-27T06:04:01.805Z,56.80
2018-01-27T06:06:30.049Z,56.40
2018-01-27T06:08:58.335Z,56.50
2018-01-27T06:11:27.439Z,56.40
2018-01-27T06:13:55.651Z,56.40
2018-01-27T06:16:23.978Z,56.60
2018-01-27T06:18:52.237Z,56.70
2018-01-27T06:21:20.483Z,56.60
2018-01-27T06:23:48.753Z,56.50
2018-01-27T06:26:16.993Z,56.40
2018-01-27T06:28:45.287Z,56.50
2018-01-27T06:31:13.546Z,56.40
2018-01-27T06:33:41.824Z,56.30
2018-01-27T06:36:10.058Z,56.20
2018-01-27T06:38:38.341Z,56.50
2018-01-27T06:41:06.578Z,56.60
2018-01-27T06:43:34.821Z,56.70
2018-01-27T06:46:03.096Z,56.60
2018-01-27T06:48:31.547Z,56.30
2018-01-27T06:50:59.921Z,56.40
2018-01-27T06:53:28.177Z,56.30
2018-01-27T06:55:56.529Z,56.40
2018-01-27T06:58:24.778Z,56.40
2018-01-27T07:00:53.030Z,56.40
2018-01-27T07:03:21.301Z,56.40
2018-01-27T07:05:49.539Z,56.40
2018-01-27T07:08:17.795Z,56.30
2018-01-27T07:10:46.030Z,56.40
2018-01-27T07:13:15.061Z,56.20
2018-01-27T07:15:43.625Z,56.10
2018-01-27T07:18:11.863Z,56.20
2018-01-27T07:20:40.868Z,55.70
2018-01-27T07:23:09.374Z,55.90
2018-01-27T07:25:37.618Z,56.30
2018-01-27T07:28:05.869Z,56.20
2018-01-27T07:30:34.200Z,56.60
2018-01-27T07:33:02.608Z,56.70
2018-01-27T07:35:30.917Z,56.60
2018-01-27T07:37:59.156Z,56.80
2018-01-27T07:40:27.489Z,56.60
2018-01-27T07:42:55.903Z,56.60
2018-01-27T07:45:24.601Z,56.50
2018-01-27T07:47:52.870Z,56.50
2018-01-27T07:50:21.116Z,56.70
2018-01-27T07:52:50.128Z,56.60
2018-01-27T07:55:19.173Z,56.70
2018-01-27T07:57:47.452Z,56.60
2018-01-27T08:00:15.909Z,56.60
2018-01-27T08:02:44.209Z,56.80
2018-01-27T08:05:12.462Z,56.90
2018-01-27T08:07:40.741Z,57.00
2018-01-27T08:10:08.998Z,57.00
2018-01-27T08:12:37.269Z,57.20
2018-01-27T08:15:05.545Z,57.20
2018-01-27T08:17:33.789Z,57.30
2018-01-27T08:20:02.810Z,57.20
2018-01-27T08:22:31.066Z,57.50
2018-01-27T08:24:59.337Z,57.60
2018-01-27T08:27:27.645Z,57.30
2018-01-27T08:29:55.893Z,57.50
2018-01-27T08:32:24.475Z,57.40
2018-01-27T08:34:52.715Z,57.30
2018-01-27T08:37:21.020Z,57.10
2018-01-27T08:39:49.282Z,57.20
2018-01-27T08:42:17.518Z,57.40
2018-01-27T08:44:46.077Z,57.60
2018-01-27T08:47:14.317Z,57.20
2018-01-27T08:49:42.610Z,57.30
2018-01-27T08:52:10.856Z,57.40
2018-01-27T08:54:39.088Z,57.50
2018-01-27T08:57:07.789Z,57.50
2018-01-27T08:59:36.760Z,57.50
2018-01-27T09:02:04.999Z,57.70
2018-01-27T09:04:33.268Z,57.70
2018-01-27T09:07:03.133Z,57.40
2018-01-27T09:09:31.461Z,57.60
2018-01-27T09:12:00.509Z,57.30
2018-01-27T09:14:28.762Z,57.60
2018-01-27T09:16:57.757Z,57.50
2018-01-27T09:19:26.029Z,57.70
2018-01-27T09:21:54.277Z,57.90
2018-01-27T09:24:23.299Z,57.70
2018-01-27T09:26:51.654Z,57.70
2018-01-27T09:29:19.893Z,57.70
2018-01-27T09:31:48.162Z,57.90
2018-01-27T09:34:16.404Z,57.90
2018-01-27T09:36:44.649Z,57.90
2018-01-27T09:39:12.886Z,58.10
2018-01-27T09:41:41.206Z,58.20
2018-01-27T09:44:09.409Z,58.30
2018-01-27T09:46:37.818Z,58.30
2018-01-27T09:49:06.249Z,58.10
2018-01-27T09:51:35.299Z,58.20
2018-01-27T09:54:03.574Z,58.10
2018-01-27T09:56:31.809Z,58.10
2018-01-27T09:59:00.275Z,58.10
2018-01-27T10:01:28.629Z,58.30
2018-01-27T10:03:56.917Z,58.50
2018-01-27T10:06:25.241Z,58.60
2018-01-27T10:08:53.481Z,58.30
2018-01-27T10:11:22.533Z,58.50
2018-01-27T10:13:50.770Z,58.30
2018-01-27T10:16:19.029Z,58.40
2018-01-27T10:18:47.297Z,58.40
2018-01-27T10:21:15.526Z,58.50
2018-01-27T10:23:43.818Z,58.00
2018-01-27T10:26:12.061Z,58.30
2018-01-27T10:28:40.305Z,58.00
2018-01-27T10:31:09.337Z,58.00
2018-01-27T10:33:37.600Z,58.40
2018-01-27T10:36:05.845Z,58.20
2018-01-27T10:38:34.097Z,58.40
2018-01-27T10:41:02.901Z,58.20
2018-01-27T10:43:31.132Z,58.00
2018-01-27T10:45:59.563Z,58.00
2018-01-27T10:48:28.045Z,58.10
2018-01-27T10:50:56.272Z,57.50
2018-01-27T10:53:24.549Z,58.10
2018-01-27T10:55:52.809Z,57.00
2018-01-27T10:58:21.129Z,57.80
2018-01-27T11:00:49.377Z,58.00
2018-01-27T11:03:17.621Z,58.00
2018-01-27T11:05:46.657Z,56.80
2018-01-27T11:08:14.892Z,57.70
2018-01-27T11:10:43.158Z,56.70
2018-01-27T11:13:11.419Z,56.50
2018-01-27T11:15:39.707Z,56.40
2018-01-27T11:18:08.011Z,56.50
2018-01-27T11:20:36.240Z,56.50
2018-01-27T11:23:04.479Z,56.20
2018-01-27T11:25:32.728Z,56.40
2018-01-27T11:28:01.081Z,56.40
2018-01-27T11:30:29.437Z,56.20
2018-01-27T11:32:57.703Z,55.80
2018-01-27T11:35:25.941Z,55.80
2018-01-27T11:37:54.961Z,56.00
2018-01-27T11:40:23.430Z,55.40
2018-01-27T11:42:51.681Z,55.30
2018-01-27T11:45:20.711Z,54.80
2018-01-27T11:47:48.957Z,55.10
2018-01-27T11:50:17.220Z,54.40
2018-01-27T11:52:45.468Z,54.50
2018-01-27T11:55:13.717Z,54.50
2018-01-27T11:57:41.993Z,54.20
2018-01-27T12:00:10.297Z,54.30
2018-01-27T12:02:38.802Z,54.20
2018-01-27T12:05:07.069Z,53.90
2018-01-27T12:07:35.308Z,53.90
2018-01-27T12:10:03.564Z,54.10
2018-01-27T12:12:31.818Z,53.70
2018-01-27T12:15:00.872Z,53.50
2018-01-27T12:17:29.932Z,53.70
2018-01-27T12:19:58.179Z,53.60
2018-01-27T12:22:27.336Z,53.80
2018-01-27T12:24:55.582Z,53.80
2018-01-27T12:27:23.885Z,53.80
2018-01-27T12:29:52.161Z,53.50
2018-01-27T12:32:20.466Z,53.60
2018-01-27T12:34:48.775Z,53.50
2018-01-27T12:37:17.042Z,53.50
2018-01-27T12:39:45.324Z,53.30
2018-01-27T12:42:13.596Z,53.30
2018-01-27T12:44:41.825Z,53.10
2018-01-27T12:47:10.089Z,52.90
2018-01-27T12:49:42.294Z,52.90
2018-01-27T12:52:10.716Z,52.70
2018-01-27T12:54:38.999Z,52.80
2018-01-27T12:57:07.249Z,52.40
2018-01-27T12:59:35.702Z,52.40
2018-01-27T13:02:03.974Z,52.00
2018-01-27T13:04:32.380Z,52.00
2018-01-27T13:07:00.637Z,52.00
2018-01-27T13:09:28.974Z,52.00
2018-01-27T13:11:57.222Z,52.30
2018-01-27T13:14:25.502Z,51.40
2018-01-27T13:16:53.761Z,51.30
2018-01-27T13:19:22.039Z,51.40
2018-01-27T13:21:51.054Z,51.20
2018-01-27T13:24:19.286Z,51.30
2018-01-27T13:26:47.573Z,51.40
2018-01-27T13:29:16.586Z,51.50
2018-01-27T13:31:44.996Z,51.40
2018-01-27T13:34:13.234Z,51.60
2018-01-27T13:36:41.484Z,51.50
2018-01-27T13:39:09.734Z,51.00
2018-01-27T13:41:38.003Z,51.10
2018-01-27T13:44:06.240Z,51.30
2018-01-27T13:46:34.497Z,51.00
2018-01-27T13:49:03.034Z,50.90
2018-01-27T13:51:31.293Z,51.00
2018-01-27T13:53:59.536Z,51.20
2018-01-27T13:56:28.584Z,51.40
2018-01-27T13:58:56.818Z,51.50
2018-01-27T14:01:25.082Z,51.50
2018-01-27T14:03:53.345Z,51.80
2018-01-27T14:06:23.106Z,51.30
2018-01-27T14:08:51.497Z,51.30
2018-01-27T14:11:19.837Z,51.30
2018-01-27T14:13:48.080Z,51.40
2018-01-27T14:16:16.356Z,51.40
2018-01-27T14:18:44.605Z,51.10
2018-01-27T14:21:12.874Z,51.00
2018-01-27T14:23:41.136Z,51.10
2018-01-27T14:26:09.388Z,51.10
2018-01-27T14:28:37.660Z,51.20
2018-01-27T14:31:05.919Z,51.20
2018-01-27T14:33:34.169Z,51.30
2018-01-27T14:36:02.649Z,51.00
2018-01-27T14:38:30.892Z,51.00
2018-01-27T14:40:59.398Z,51.00
2018-01-27T14:43:27.646Z,51.20
2018-01-27T14:45:55.898Z,50.80
2018-01-27T14:48:25.106Z,51.10
2018-01-27T14:50:53.457Z,50.90
2018-01-27T14:53:21.702Z,51.40
2018-01-27T14:55:50.033Z,51.10
2018-01-27T14:58:19.029Z,51.00
2018-01-27T15:00:47.501Z,51.00
2018-01-27T15:03:15.813Z,51.00
2018-01-27T15:05:44.096Z,50.80
2018-01-27T15:08:12.573Z,51.00
2018-01-27T15:10:40.972Z,50.90
2018-01-27T15:13:09.240Z,50.60
2018-01-27T15:15:37.763Z,51.20
2018-01-27T15:18:06.017Z,50.50
2018-01-27T15:20:34.287Z,50.50
2018-01-27T15:23:02.560Z,50.40
2018-01-27T15:25:30.825Z,50.20
2018-01-27T15:27:59.149Z,50.40
2018-01-27T15:30:27.420Z,50.40
2018-01-27T15:32:56.432Z,50.20
2018-01-27T15:35:25.482Z,49.80
2018-01-27T15:37:54.338Z,50.20
2018-01-27T15:40:22.624Z,50.10
2018-01-27T15:42:50.892Z,50.30
2018-01-27T15:45:19.202Z,50.60
2018-01-27T15:47:47.813Z,50.00
2018-01-27T15:50:16.029Z,50.20
2018-01-27T15:52:44.337Z,50.30
2018-01-27T15:55:12.648Z,50.00
2018-01-27T15:57:40.868Z,50.00
2018-01-27T16:00:09.153Z,50.80
2018-01-27T16:02:37.415Z,50.30
2018-01-27T16:05:05.662Z,50.30
2018-01-27T16:07:34.010Z,50.50
2018-01-27T16:10:02.623Z,50.30
2018-01-27T16:12:31.741Z,50.30
2018-01-27T16:15:00.006Z,50.00
2018-01-27T16:17:28.236Z,50.20
2018-01-27T16:19:56.565Z,50.30
2018-01-27T16:22:24.873Z,50.40
2018-01-27T16:24:53.130Z,50.50
2018-01-27T16:27:21.384Z,50.50
2018-01-27T16:29:49.643Z,50.90
2018-01-27T16:32:17.941Z,51.00
2018-01-27T16:34:46.175Z,51.20
2018-01-27T16:37:14.476Z,51.10
2018-01-27T16:39:42.763Z,51.60
2018-01-27T16:42:11.012Z,51.60
2018-01-27T16:44:39.272Z,51.60
2018-01-27T16:47:07.555Z,51.70
2018-01-27T16:49:35.838Z,52.00
2018-01-27T16:52:04.090Z,51.80
2018-01-27T16:54:33.148Z,52.10
2018-01-27T16:57:01.425Z,52.00
2018-01-27T16:59:29.713Z,52.10
2018-01-27T17:01:57.956Z,52.20
2018-01-27T17:04:27.107Z,53.30
2018-01-27T17:06:55.421Z,52.20
2018-01-27T17:09:23.669Z,52.20
2018-01-27T17:11:51.946Z,53.10
2018-01-27T17:14:20.177Z,53.20
2018-01-27T17:16:48.563Z,52.40
2018-01-27T17:19:16.857Z,52.50
2018-01-27T17:21:45.122Z,53.20
2018-01-27T17:24:13.400Z,53.20
2018-01-27T17:26:41.661Z,53.30
2018-01-27T17:29:09.928Z,53.20
2018-01-27T17:31:38.176Z,53.70
2018-01-27T17:34:06.452Z,53.80
2018-01-27T17:36:35.480Z,53.70
2018-01-27T17:39:04.518Z,53.70
2018-01-27T17:41:32.745Z,53.80
2018-01-27T17:44:01.877Z,53.60
2018-01-27T17:46:30.163Z,53.50
2018-01-27T17:48:58.416Z,53.40
2018-01-27T17:51:27.590Z,53.80
2018-01-27T17:53:56.780Z,54.40
2018-01-27T17:56:25.249Z,53.80
2018-01-27T17:58:53.457Z,53.60
2018-01-27T18:01:21.783Z,53.80
2018-01-27T18:03:50.018Z,53.80
2018-01-27T18:06:18.625Z,53.90
2018-01-27T18:08:46.878Z,53.70
2018-01-27T18:11:15.198Z,53.70
2018-01-27T18:13:44.476Z,53.90
2018-01-27T18:16:12.716Z,53.70
2018-01-27T18:18:41.010Z,53.70
2018-01-27T18:21:09.713Z,53.80
2018-01-27T18:23:38.030Z,53.70
2018-01-27T18:26:06.233Z,53.50
2018-01-27T18:28:34.496Z,53.60
2018-01-27T18:31:03.523Z,53.50
2018-01-27T18:33:31.810Z,53.70
2018-01-27T18:36:00.181Z,53.70
2018-01-27T18:38:28.476Z,53.60
2018-01-27T18:40:56.745Z,53.60
2018-01-27T18:43:24.981Z,53.60
2018-01-27T18:45:53.247Z,53.70
2018-01-27T18:48:21.613Z,53.50
2018-01-27T18:50:49.861Z,53.30
2018-01-27T18:53:18.093Z,53.40
2018-01-27T18:55:46.345Z,53.70
2018-01-27T18:58:14.589Z,53.50
2018-01-27T19:00:42.842Z,53.70
2018-01-27T19:03:11.237Z,53.50
2018-01-27T19:05:39.533Z,53.60
2018-01-27T19:08:07.738Z,53.60
2018-01-27T19:10:36.133Z,53.70
2018-01-27T19:13:04.405Z,53.40
2018-01-27T19:15:32.659Z,53.70
2018-01-27T19:18:01.020Z,53.60
2018-01-27T19:20:29.276Z,53.70
2018-01-27T19:22:57.584Z,53.50
2018-01-27T19:25:25.852Z,53.60
2018-01-27T19:27:54.139Z,53.50
2018-01-27T19:30:22.482Z,53.20
2018-01-27T19:32:50.794Z,53.40
2018-01-27T19:35:19.075Z,53.20
2018-01-27T19:37:51.277Z,53.00
2018-01-27T19:40:24.755Z,53.10
2018-01-27T19:42:52.992Z,53.00
2018-01-27T19:45:21.373Z,53.00
2018-01-27T19:47:50.077Z,53.10
2018-01-27T19:50:18.348Z,53.00
2018-01-27T19:52:46.838Z,53.10
2018-01-27T19:55:15.114Z,53.10
2018-01-27T19:57:43.355Z,53.10
2018-01-27T20:00:11.650Z,52.80
2018-01-27T20:02:39.921Z,53.10
2018-01-27T20:05:08.447Z,53.10
2018-01-27T20:07:36.702Z,52.90
2018-01-27T20:10:06.494Z,52.80
2018-01-27T20:12:34.787Z,53.00
2018-01-27T20:15:03.067Z,53.10
2018-01-27T20:17:31.301Z,52.90
2018-01-27T20:19:59.721Z,52.60
2018-01-27T20:22:27.924Z,52.80
2018-01-27T20:24:56.920Z,52.90
2018-01-27T20:27:25.345Z,52.90
2018-01-27T20:29:53.648Z,52.50
2018-01-27T20:32:21.913Z,52.80
2018-01-27T20:34:50.166Z,52.70
2018-01-27T20:37:18.436Z,52.40
2018-01-27T20:39:46.693Z,52.40
2018-01-27T20:42:15.096Z,52.60
2018-01-27T20:44:44.885Z,52.10
2018-01-27T20:47:13.160Z,52.10
2018-01-27T20:49:41.417Z,52.20
2018-01-27T20:52:10.074Z,52.10
2018-01-27T20:54:39.170Z,52.00
2018-01-27T20:57:07.523Z,52.00
2018-01-27T20:59:35.771Z,52.20
2018-01-27T21:02:04.027Z,52.10
2018-01-27T21:04:32.274Z,51.90
2018-01-27T21:07:01.440Z,52.20
2018-01-27T21:09:29.714Z,52.10
2018-01-27T21:11:58.027Z,52.00
2018-01-27T21:14:26.278Z,52.00
2018-01-27T21:16:54.504Z,51.80
2018-01-27T21:19:23.674Z,52.00
2018-01-27T21:21:52.112Z,51.90
2018-01-27T21:24:20.429Z,52.10
2018-01-27T21:26:48.939Z,52.20
2018-01-27T21:29:17.213Z,52.00
2018-01-27T21:31:45.442Z,52.00
2018-01-27T21:34:14.040Z,52.00
2018-01-27T21:36:42.328Z,52.10
2018-01-27T21:39:10.620Z,52.00
2018-01-27T21:41:39.083Z,52.00
2018-01-27T21:44:07.898Z,52.00
2018-01-27T21:46:36.932Z,51.70
2018-01-27T21:49:05.153Z,51.70
2018-01-27T21:51:33.408Z,51.60
2018-01-27T21:54:01.642Z,51.70
2018-01-27T21:56:30.007Z,51.30
2018-01-27T21:58:58.252Z,51.30
2018-01-27T22:01:27.289Z,51.40
2018-01-27T22:03:55.593Z,51.40
2018-01-27T22:06:24.066Z,51.10
2018-01-27T22:08:52.322Z,51.10
2018-01-27T22:11:20.632Z,51.20
2018-01-27T22:13:48.899Z,50.90
2018-01-27T22:16:17.169Z,51.00
2018-01-27T22:18:45.427Z,50.70
2018-01-27T22:21:13.678Z,50.90
2018-01-27T22:23:42.669Z,50.90
2018-01-27T22:26:10.886Z,50.60
2018-01-27T22:28:39.148Z,50.60
2018-01-27T22:31:07.690Z,50.50
2018-01-27T22:33:36.723Z,50.40
2018-01-27T22:36:04.990Z,50.50
2018-01-27T22:38:33.234Z,50.40
2018-01-27T22:41:01.526Z,50.20
2018-01-27T22:43:30.550Z,50.10
2018-01-27T22:45:58.978Z,50.00
2018-01-27T22:48:27.352Z,50.20
2018-01-27T22:50:55.591Z,50.10
2018-01-27T22:53:23.859Z,50.10
2018-01-27T22:55:52.073Z,50.20
2018-01-27T22:58:20.425Z,50.20
2018-01-27T23:00:54.392Z,50.30
2018-01-27T23:03:22.672Z,50.50
2018-01-27T23:05:50.918Z,50.50
2018-01-27T23:08:20.709Z,51.40
2018-01-27T23:10:48.938Z,51.20
2018-01-27T23:13:17.189Z,51.60
2018-01-27T23:15:45.432Z,51.50
2018-01-27T23:18:13.726Z,51.60
2018-01-27T23:20:41.989Z,52.00
2018-01-27T23:23:10.267Z,52.10
2018-01-27T23:25:38.504Z,52.50
2018-01-27T23:28:06.746Z,52.60
2018-01-27T23:30:34.992Z,52.90
2018-01-27T23:33:03.348Z,52.90
2018-01-27T23:35:31.608Z,53.40
2018-01-27T23:37:59.847Z,54.00
2018-01-27T23:40:28.096Z,54.40
2018-01-27T23:42:56.348Z,54.80
2018-01-27T23:45:24.611Z,55.00
2018-01-27T23:47:52.876Z,54.90
2018-01-27T23:50:21.252Z,55.20
2018-01-27T23:52:49.461Z,55.50
2018-01-27T23:55:17.703Z,55.60
2018-01-27T23:57:45.956Z,55.90
